createdAt,value
2017-07-11T00:00:29.312Z,21.77
2017-07-11T00:02:56.800Z,16.93
2017-07-11T00:05:24.297Z,19.80
2017-07-11T00:07:51.849Z,16.57
2017-07-11T00:10:19.353Z,17.23
2017-07-11T00:12:46.945Z,19.63
2017-07-11T00:15:14.461Z,18.93
2017-07-11T00:17:41.987Z,23.17
2017-07-11T00:20:10.250Z,22.70
2017-07-11T00:22:38.536Z,16.80
2017-07-11T00:25:06.285Z,17.20
2017-07-11T00:27:33.834Z,19.77
2017-07-11T00:30:01.372Z,23.00
2017-07-11T00:32:28.897Z,17.73
2017-07-11T00:34:57.177Z,17.50
2017-07-11T00:37:24.722Z,18.33
2017-07-11T00:39:52.267Z,17.33
2017-07-11T00:42:19.813Z,20.47
2017-07-11T00:44:47.374Z,18.17
2017-07-11T00:47:14.907Z,20.70
2017-07-11T00:49:42.551Z,21.53
2017-07-11T00:52:10.373Z,20.23
2017-07-11T00:54:37.897Z,18.40
2017-07-11T00:57:05.398Z,17.30
2017-07-11T00:59:32.982Z,17.47
2017-07-11T01:02:00.661Z,17.50
2017-07-11T01:04:28.176Z,18.97
2017-07-11T01:06:55.661Z,20.77
2017-07-11T01:09:23.286Z,19.97
2017-07-11T01:11:50.809Z,19.13
2017-07-11T01:14:18.307Z,18.40
2017-07-11T01:16:45.833Z,17.47
2017-07-11T01:19:13.355Z,20.40
2017-07-11T01:21:40.877Z,17.00
2017-07-11T01:24:08.421Z,22.90
2017-07-11T01:26:35.964Z,17.47
2017-07-11T01:29:03.504Z,19.57
2017-07-11T01:31:31.077Z,19.27
2017-07-11T01:33:58.593Z,20.43
2017-07-11T01:36:35.028Z,15.80
2017-07-11T01:39:03.280Z,14.70
2017-07-11T01:41:31.564Z,17.67
2017-07-11T01:43:59.064Z,16.60
2017-07-11T01:46:26.559Z,22.20
2017-07-11T01:48:54.094Z,14.37
2017-07-11T01:51:21.841Z,15.40
2017-07-11T01:53:49.390Z,16.60
2017-07-11T01:56:17.661Z,15.50
2017-07-11T01:58:45.211Z,17.87
2017-07-11T02:01:12.723Z,18.03
2017-07-11T02:03:40.230Z,17.23
2017-07-11T02:06:07.750Z,16.70
2017-07-11T02:08:35.466Z,15.00
2017-07-11T02:11:03.721Z,16.10
2017-07-11T02:13:32.018Z,16.33
2017-07-11T02:15:59.766Z,17.40
2017-07-11T02:18:27.262Z,18.50
2017-07-11T02:20:54.757Z,13.57
2017-07-11T02:23:22.265Z,19.57
2017-07-11T02:25:50.557Z,16.77
2017-07-11T02:28:18.413Z,18.93
2017-07-11T02:30:45.984Z,14.50
2017-07-11T02:33:13.494Z,16.57
2017-07-11T02:35:41.069Z,27.07
2017-07-11T02:38:08.581Z,15.70
2017-07-11T02:40:36.120Z,23.10
2017-07-11T02:43:03.618Z,17.70
2017-07-11T02:45:31.134Z,21.20
2017-07-11T02:47:58.737Z,15.30
2017-07-11T02:50:27.013Z,17.23
2017-07-11T02:52:54.568Z,18.50
2017-07-11T02:55:22.302Z,21.63
2017-07-11T02:57:49.866Z,16.40
2017-07-11T03:00:17.383Z,22.37
2017-07-11T03:02:44.902Z,18.97
2017-07-11T03:05:13.181Z,15.03
2017-07-11T03:07:40.695Z,15.10
2017-07-11T03:10:08.282Z,18.27
2017-07-11T03:12:35.828Z,23.37
2017-07-11T03:15:03.370Z,17.30
2017-07-11T03:17:30.881Z,18.93
2017-07-11T03:19:59.380Z,19.70
2017-07-11T03:22:26.921Z,21.13
2017-07-11T03:24:54.465Z,22.13
2017-07-11T03:27:22.005Z,20.17
2017-07-11T03:29:49.517Z,22.87
2017-07-11T03:32:17.786Z,24.30
2017-07-11T03:34:46.191Z,19.83
2017-07-11T03:37:13.708Z,21.53
2017-07-11T03:39:41.230Z,17.40
2017-07-11T03:42:09.519Z,20.17
2017-07-11T03:44:37.069Z,26.43
2017-07-11T03:47:04.608Z,20.87
2017-07-11T03:49:32.157Z,24.50
2017-07-11T03:51:59.698Z,21.10
2017-07-11T03:54:27.205Z,20.23
2017-07-11T03:56:55.580Z,20.23
2017-07-11T03:59:23.836Z,22.27
2017-07-11T04:01:52.097Z,20.43
2017-07-11T04:04:20.492Z,28.27
2017-07-11T04:06:47.997Z,24.30
2017-07-11T04:09:16.301Z,21.83
2017-07-11T04:11:43.837Z,24.23
2017-07-11T04:14:11.541Z,22.63
2017-07-11T04:16:39.242Z,22.43
2017-07-11T04:19:06.740Z,20.70
2017-07-11T04:21:34.232Z,25.00
2017-07-11T04:24:01.772Z,21.00
2017-07-11T04:26:29.277Z,14.77
2017-07-11T04:28:56.882Z,17.63
2017-07-11T04:31:24.442Z,14.67
2017-07-11T04:33:51.954Z,14.53
2017-07-11T04:36:19.550Z,15.70
2017-07-11T04:38:47.166Z,12.90
2017-07-11T04:41:14.709Z,17.13
2017-07-11T04:43:42.253Z,16.07
2017-07-11T04:46:09.778Z,21.63
2017-07-11T04:48:37.269Z,15.63
2017-07-11T04:51:04.784Z,15.23
2017-07-11T04:53:32.314Z,12.17
2017-07-11T04:55:59.869Z,20.10
2017-07-11T04:58:28.369Z,18.60
2017-07-11T05:00:55.877Z,17.53
2017-07-11T05:03:23.377Z,15.87
2017-07-11T05:05:50.910Z,16.83
2017-07-11T05:08:18.464Z,13.77
2017-07-11T05:10:45.990Z,17.20
2017-07-11T05:13:13.533Z,12.60
2017-07-11T05:15:41.021Z,9.23
2017-07-11T05:18:08.510Z,13.27
2017-07-11T05:20:36.057Z,10.20
2017-07-11T05:23:03.596Z,9.60
2017-07-11T05:25:31.375Z,13.30
2017-07-11T05:27:58.889Z,9.70
2017-07-11T05:30:26.390Z,17.77
2017-07-11T05:32:53.924Z,11.27
2017-07-11T05:35:21.534Z,13.43
2017-07-11T05:37:49.048Z,11.27
2017-07-11T05:40:16.613Z,10.70
2017-07-11T05:42:44.358Z,15.13
2017-07-11T05:45:11.848Z,11.37
2017-07-11T05:47:39.338Z,17.93
2017-07-11T05:50:07.093Z,13.43
2017-07-11T05:52:34.638Z,12.30
2017-07-11T05:55:02.155Z,10.50
2017-07-11T05:57:29.717Z,9.97
2017-07-11T05:59:57.221Z,14.10
2017-07-11T06:02:25.595Z,17.73
2017-07-11T06:04:53.387Z,10.73
2017-07-11T06:07:20.898Z,11.10
2017-07-11T06:09:49.183Z,13.10
2017-07-11T06:12:16.817Z,19.03
2017-07-11T06:14:44.309Z,16.77
2017-07-11T06:17:11.805Z,27.50
2017-07-11T06:19:39.305Z,21.07
2017-07-11T06:22:06.889Z,24.37
2017-07-11T06:24:34.389Z,29.80
2017-07-11T06:27:01.977Z,31.50
2017-07-11T06:29:29.720Z,31.03
2017-07-11T06:31:57.342Z,27.03
2017-07-11T06:34:25.643Z,32.77
2017-07-11T06:36:53.387Z,28.17
2017-07-11T06:39:20.924Z,28.50
2017-07-11T06:41:48.426Z,27.00
2017-07-11T06:44:15.958Z,28.90
2017-07-11T06:46:43.557Z,29.67
2017-07-11T06:49:11.053Z,35.47
2017-07-11T06:51:38.642Z,31.33
2017-07-11T06:54:06.190Z,31.17
2017-07-11T06:56:33.728Z,34.60
2017-07-11T06:59:01.316Z,43.17
2017-07-11T07:01:28.844Z,40.30
2017-07-11T07:03:56.401Z,47.73
2017-07-11T07:06:23.953Z,49.23
2017-07-11T07:08:51.493Z,38.37
2017-07-11T07:11:19.025Z,45.17
2017-07-11T07:13:46.582Z,44.60
2017-07-11T07:16:14.364Z,47.43
2017-07-11T07:18:41.870Z,49.93
2017-07-11T07:21:09.373Z,45.73
2017-07-11T07:23:37.685Z,47.03
2017-07-11T07:26:05.218Z,50.83
2017-07-11T07:28:32.713Z,46.67
2017-07-11T07:31:00.236Z,48.20
2017-07-11T07:33:27.745Z,57.63
2017-07-11T07:35:55.284Z,57.27
2017-07-11T07:38:22.837Z,52.80
2017-07-11T07:40:50.324Z,57.30
2017-07-11T07:43:17.817Z,61.00
2017-07-11T07:45:45.325Z,53.20
2017-07-11T07:48:13.726Z,54.30
2017-07-11T07:50:41.478Z,53.90
2017-07-11T07:53:09.030Z,60.70
2017-07-11T07:55:36.557Z,49.80
2017-07-11T07:58:04.100Z,57.77
2017-07-11T08:00:31.621Z,48.50
2017-07-11T08:02:59.904Z,54.73
2017-07-11T08:05:27.446Z,56.67
2017-07-11T08:07:54.998Z,49.03
2017-07-11T08:10:22.533Z,52.10
2017-07-11T08:12:50.057Z,46.77
2017-07-11T08:15:18.313Z,46.73
2017-07-11T08:17:46.605Z,49.20
2017-07-11T08:20:14.353Z,51.17
2017-07-11T08:22:41.875Z,53.20
2017-07-11T08:25:10.166Z,49.17
2017-07-11T08:27:37.675Z,50.33
2017-07-11T08:30:05.243Z,43.23
2017-07-11T08:32:32.781Z,42.90
2017-07-11T08:35:00.332Z,44.27
2017-07-11T08:37:27.845Z,46.27
2017-07-11T08:39:56.125Z,50.53
2017-07-11T08:42:23.673Z,50.37
2017-07-11T08:44:51.172Z,44.90
2017-07-11T08:47:18.859Z,41.53
2017-07-11T08:49:46.363Z,46.97
2017-07-11T08:52:13.870Z,42.50
2017-07-11T08:54:41.394Z,43.37
2017-07-11T08:57:08.904Z,41.67
2017-07-11T08:59:37.199Z,34.63
2017-07-11T09:02:04.693Z,38.13
2017-07-11T09:04:32.182Z,35.30
2017-07-11T09:06:59.780Z,35.47
2017-07-11T09:09:27.237Z,43.97
2017-07-11T09:11:55.521Z,35.60
2017-07-11T09:14:23.008Z,42.90
2017-07-11T09:16:50.530Z,45.20
2017-07-11T09:19:18.016Z,35.23
2017-07-11T09:21:45.513Z,40.40
2017-07-11T09:24:13.073Z,40.43
2017-07-11T09:26:40.585Z,41.60
2017-07-11T09:29:08.105Z,38.87
2017-07-11T09:31:35.664Z,41.83
2017-07-11T09:34:03.208Z,39.90
2017-07-11T09:36:30.757Z,31.70
2017-07-11T09:38:58.298Z,35.80
2017-07-11T09:41:25.841Z,31.33
2017-07-11T09:43:53.330Z,35.33
2017-07-11T09:46:20.933Z,34.63
2017-07-11T09:48:48.609Z,33.83
2017-07-11T09:51:16.110Z,30.93
2017-07-11T09:53:43.614Z,30.63
2017-07-11T09:56:11.930Z,28.20
2017-07-11T09:58:39.472Z,27.27
2017-07-11T10:01:07.016Z,33.30
2017-07-11T10:03:34.760Z,30.57
2017-07-11T10:06:02.249Z,31.70
2017-07-11T10:08:29.736Z,32.23
2017-07-11T10:10:57.280Z,28.47
2017-07-11T10:13:24.771Z,26.83
2017-07-11T10:15:52.261Z,31.73
2017-07-11T10:18:19.780Z,28.70
2017-07-11T10:20:48.073Z,32.57
2017-07-11T10:23:15.638Z,25.60
2017-07-11T10:25:43.368Z,23.73
2017-07-11T10:28:10.882Z,25.33
2017-07-11T10:30:39.953Z,23.57
2017-07-11T10:33:08.302Z,22.60
2017-07-11T10:35:35.891Z,19.20
2017-07-11T10:38:03.432Z,17.90
2017-07-11T10:40:30.928Z,19.63
2017-07-11T10:42:58.521Z,20.47
2017-07-11T10:45:26.070Z,17.77
2017-07-11T10:47:53.609Z,21.27
2017-07-11T10:50:21.127Z,18.07
2017-07-11T10:52:49.413Z,16.30
2017-07-11T10:55:16.905Z,15.47
2017-07-11T10:57:44.517Z,14.67
2017-07-11T11:00:12.042Z,13.63
2017-07-11T11:02:39.905Z,14.23
2017-07-11T11:05:07.414Z,14.23
2017-07-11T11:07:34.981Z,15.60
2017-07-11T11:10:02.485Z,13.27
2017-07-11T11:12:30.059Z,13.60
2017-07-11T11:14:57.613Z,13.00
2017-07-11T11:17:25.106Z,16.73
2017-07-11T11:19:52.693Z,12.70
2017-07-11T11:22:20.189Z,16.83
2017-07-11T11:24:47.684Z,11.50
2017-07-11T11:27:15.225Z,11.60
2017-07-11T11:29:42.725Z,15.43
2017-07-11T11:32:10.345Z,9.53
2017-07-11T11:34:37.889Z,11.30
2017-07-11T11:37:05.401Z,13.00
2017-07-11T11:39:32.925Z,8.80
2017-07-11T11:42:01.205Z,7.90
2017-07-11T11:44:28.749Z,10.53
2017-07-11T11:46:56.394Z,8.50
2017-07-11T11:49:23.936Z,6.60
2017-07-11T11:51:51.413Z,7.33
2017-07-11T11:54:18.922Z,6.17
2017-07-11T11:56:46.479Z,7.77
2017-07-11T11:59:14.217Z,7.47
2017-07-11T12:01:41.713Z,5.90
2017-07-11T12:04:09.245Z,7.53
2017-07-11T12:06:36.745Z,8.50
2017-07-11T12:09:04.237Z,6.67
2017-07-11T12:11:31.756Z,7.80
2017-07-11T12:13:59.242Z,4.67
2017-07-11T12:16:27.529Z,5.13
2017-07-11T12:18:55.017Z,8.77
2017-07-11T12:21:22.507Z,9.53
2017-07-11T12:23:50.186Z,6.20
2017-07-11T12:26:17.677Z,7.67
2017-07-11T12:28:45.966Z,5.77
2017-07-11T12:31:13.476Z,6.20
2017-07-11T12:33:41.735Z,10.40
2017-07-11T12:36:10.021Z,6.27
2017-07-11T12:38:37.570Z,5.33
2017-07-11T12:41:05.052Z,4.53
2017-07-11T12:43:32.567Z,7.20
2017-07-11T12:46:00.297Z,5.77
2017-07-11T12:48:27.853Z,7.10
2017-07-11T12:50:55.385Z,4.33
2017-07-11T12:53:22.908Z,6.17
2017-07-11T12:55:51.189Z,4.83
2017-07-11T12:58:18.674Z,8.97
2017-07-11T13:00:46.386Z,5.87
2017-07-11T13:03:13.929Z,5.83
2017-07-11T13:05:41.447Z,7.73
2017-07-11T13:08:09.774Z,5.30
2017-07-11T13:10:37.268Z,6.07
2017-07-11T13:13:04.767Z,5.43
2017-07-11T13:15:32.517Z,7.83
2017-07-11T13:17:59.969Z,8.23
2017-07-11T13:20:27.454Z,5.63
2017-07-11T13:22:54.993Z,7.00
2017-07-11T13:25:22.476Z,6.43
2017-07-11T13:27:50.181Z,5.63
2017-07-11T13:30:17.857Z,5.03
2017-07-11T13:32:45.353Z,8.73
2017-07-11T13:35:12.862Z,5.97
2017-07-11T13:37:40.558Z,4.83
2017-07-11T13:40:08.217Z,7.13
2017-07-11T13:42:35.749Z,5.10
2017-07-11T13:45:03.497Z,4.93
2017-07-11T13:47:30.980Z,4.33
2017-07-11T13:49:58.477Z,6.23
2017-07-11T13:52:26.230Z,4.50
2017-07-11T13:54:53.768Z,4.60
2017-07-11T13:57:21.253Z,5.50
2017-07-11T13:59:48.965Z,5.67
2017-07-11T14:02:16.472Z,4.87
2017-07-11T14:04:43.978Z,4.60
2017-07-11T14:07:11.585Z,5.20
2017-07-11T14:09:39.196Z,6.87
2017-07-11T14:12:06.685Z,6.23
2017-07-11T14:14:34.420Z,5.73
2017-07-11T14:17:01.909Z,5.17
2017-07-11T14:19:29.397Z,4.27
2017-07-11T14:21:57.777Z,6.40
2017-07-11T14:24:25.322Z,8.87
2017-07-11T14:26:52.818Z,13.97
2017-07-11T14:29:21.129Z,12.43
2017-07-11T14:31:48.621Z,11.40
2017-07-11T14:34:16.145Z,10.90
2017-07-11T14:36:43.675Z,10.63
2017-07-11T14:39:11.178Z,11.93
2017-07-11T14:41:39.478Z,10.20
2017-07-11T14:44:06.978Z,9.80
2017-07-11T14:46:35.252Z,8.70
2017-07-11T14:49:02.815Z,11.63
2017-07-11T14:51:30.450Z,8.77
2017-07-11T14:53:57.925Z,7.67
2017-07-11T14:56:25.418Z,11.30
2017-07-11T14:58:52.973Z,7.67
2017-07-11T15:01:20.518Z,8.93
2017-07-11T15:03:48.266Z,10.67
2017-07-11T15:06:15.758Z,8.20
2017-07-11T15:08:43.262Z,9.60
2017-07-11T15:11:10.886Z,11.77
2017-07-11T15:13:38.436Z,7.63
2017-07-11T15:16:05.986Z,8.37
2017-07-11T15:18:33.528Z,12.10
2017-07-11T15:21:01.115Z,9.07
2017-07-11T15:23:28.600Z,9.33
2017-07-11T15:25:56.891Z,8.47
2017-07-11T15:28:24.387Z,10.87
2017-07-11T15:30:52.683Z,10.37
2017-07-11T15:33:20.179Z,8.63
2017-07-11T15:35:47.665Z,12.00
2017-07-11T15:38:15.194Z,11.93
2017-07-11T15:40:42.703Z,8.57
2017-07-11T15:43:10.202Z,9.17
2017-07-11T15:45:37.747Z,9.23
2017-07-11T15:48:05.253Z,8.37
2017-07-11T15:50:33.500Z,9.10
2017-07-11T15:53:01.087Z,12.57
2017-07-11T15:55:28.626Z,9.70
2017-07-11T15:57:56.114Z,8.33
2017-07-11T16:00:23.605Z,10.20
2017-07-11T16:02:51.140Z,10.70
2017-07-11T16:05:19.405Z,7.63
2017-07-11T16:07:46.913Z,10.57
2017-07-11T16:10:14.462Z,8.60
2017-07-11T16:12:41.968Z,8.00
2017-07-11T16:15:09.486Z,8.83
2017-07-11T16:17:37.006Z,13.53
2017-07-11T16:20:05.286Z,7.83
2017-07-11T16:22:32.773Z,7.67
2017-07-11T16:25:00.284Z,12.30
2017-07-11T16:27:27.816Z,9.00
2017-07-11T16:29:55.306Z,9.17
2017-07-11T16:32:22.885Z,9.40
2017-07-11T16:34:51.169Z,8.57
2017-07-11T16:37:18.710Z,9.27
2017-07-11T16:39:46.568Z,9.03
2017-07-11T16:42:14.127Z,12.57
2017-07-11T16:44:41.619Z,8.67
2017-07-11T16:47:09.937Z,9.57
2017-07-11T16:49:37.454Z,13.27
2017-07-11T16:52:05.079Z,12.00
2017-07-11T16:54:33.352Z,8.97
2017-07-11T16:57:00.898Z,7.97
2017-07-11T16:59:28.421Z,11.03
2017-07-11T17:01:56.710Z,11.30
2017-07-11T17:04:24.245Z,11.37
2017-07-11T17:06:51.785Z,8.90
2017-07-11T17:09:19.537Z,10.00
2017-07-11T17:11:47.106Z,10.10
2017-07-11T17:14:14.609Z,9.17
2017-07-11T17:16:42.474Z,10.47
2017-07-11T17:19:09.998Z,10.47
2017-07-11T17:21:37.591Z,8.30
2017-07-11T17:24:05.103Z,11.20
2017-07-11T17:26:38.677Z,12.20
2017-07-11T17:29:10.068Z,9.20
2017-07-11T17:31:37.886Z,8.67
2017-07-11T17:34:05.385Z,10.77
2017-07-11T17:36:33.703Z,9.73
2017-07-11T17:39:01.431Z,12.23
2017-07-11T17:41:28.969Z,9.00
2017-07-11T17:43:56.513Z,11.13
2017-07-11T17:46:24.066Z,10.83
2017-07-11T17:48:51.553Z,11.30
2017-07-11T17:51:19.298Z,15.87
2017-07-11T17:53:46.994Z,12.20
2017-07-11T17:56:14.535Z,12.53
2017-07-11T17:58:42.065Z,10.73
2017-07-11T18:01:10.334Z,10.53
2017-07-11T18:03:37.840Z,12.77
2017-07-11T18:06:05.416Z,11.20
2017-07-11T18:08:32.905Z,11.23
2017-07-11T18:11:01.283Z,10.67
2017-07-11T18:13:29.597Z,10.63
2017-07-11T18:15:57.087Z,10.37
2017-07-11T18:18:24.589Z,11.17
2017-07-11T18:20:52.126Z,13.63
2017-07-11T18:23:19.629Z,11.20
2017-07-11T18:25:47.147Z,11.40
2017-07-11T18:28:14.681Z,12.03
2017-07-11T18:30:42.250Z,11.37
2017-07-11T18:33:09.798Z,12.90
2017-07-11T18:35:37.322Z,13.50
2017-07-11T18:38:05.046Z,12.60
2017-07-11T18:40:32.586Z,12.60
2017-07-11T18:43:00.104Z,12.40
2017-07-11T18:45:28.485Z,12.70
2017-07-11T18:47:55.976Z,14.73
2017-07-11T18:50:23.565Z,17.23
2017-07-11T18:52:51.109Z,15.77
2017-07-11T18:55:18.653Z,18.13
2017-07-11T18:57:46.153Z,14.93
2017-07-11T19:00:13.840Z,12.90
2017-07-11T19:02:41.398Z,14.20
2017-07-11T19:05:08.901Z,14.13
2017-07-11T19:07:37.296Z,14.40
2017-07-11T19:10:04.833Z,13.43
2017-07-11T19:12:33.168Z,15.23
2017-07-11T19:15:00.668Z,13.87
2017-07-11T19:17:28.185Z,13.20
2017-07-11T19:19:55.733Z,15.17
2017-07-11T19:22:23.239Z,12.77
2017-07-11T19:24:50.773Z,13.17
2017-07-11T19:27:18.518Z,12.80
2017-07-11T19:29:46.022Z,14.43
2017-07-11T19:32:13.509Z,14.60
2017-07-11T19:34:41.061Z,15.70
2017-07-11T19:37:08.569Z,12.87
2017-07-11T19:39:36.852Z,14.00
2017-07-11T19:42:04.411Z,13.10
2017-07-11T19:44:31.933Z,12.73
2017-07-11T19:47:00.204Z,13.30
2017-07-11T19:49:27.771Z,15.77
2017-07-11T19:51:55.325Z,17.30
2017-07-11T19:54:23.070Z,17.03
2017-07-11T19:56:50.592Z,15.43
2017-07-11T19:59:18.136Z,13.37
2017-07-11T20:01:45.637Z,14.97
2017-07-11T20:04:13.130Z,13.67
2017-07-11T20:06:40.669Z,15.30
2017-07-11T20:09:08.214Z,16.60
2017-07-11T20:11:35.755Z,15.10
2017-07-11T20:14:03.272Z,19.53
2017-07-11T20:16:31.556Z,14.73
2017-07-11T20:18:59.069Z,15.07
2017-07-11T20:21:26.655Z,15.30
2017-07-11T20:23:54.189Z,14.90
2017-07-11T20:26:21.902Z,16.33
2017-07-11T20:28:50.217Z,16.87
2017-07-11T20:31:17.752Z,16.60
2017-07-11T20:33:45.284Z,15.30
2017-07-11T20:36:13.035Z,14.93
2017-07-11T20:38:40.533Z,16.13
2017-07-11T20:41:08.121Z,18.50
2017-07-11T20:43:35.617Z,19.23
2017-07-11T20:46:05.510Z,16.30
2017-07-11T20:48:33.805Z,16.57
2017-07-11T20:51:02.073Z,15.77
2017-07-11T20:53:29.637Z,17.30
2017-07-11T20:55:57.430Z,19.43
2017-07-11T20:58:24.959Z,17.87
2017-07-11T21:00:52.563Z,17.20
2017-07-11T21:03:20.106Z,17.27
2017-07-11T21:05:47.626Z,18.73
2017-07-11T21:08:15.912Z,18.57
2017-07-11T21:10:43.437Z,17.80
2017-07-11T21:13:11.713Z,19.57
2017-07-11T21:15:39.202Z,17.67
2017-07-11T21:18:06.711Z,21.63
2017-07-11T21:20:34.445Z,16.80
2017-07-11T21:23:01.957Z,17.87
2017-07-11T21:25:29.567Z,18.60
2017-07-11T21:27:57.113Z,17.10
2017-07-11T21:30:24.606Z,17.40
2017-07-11T21:32:52.165Z,16.77
2017-07-11T21:35:19.670Z,24.90
2017-07-11T21:37:48.065Z,18.07
2017-07-11T21:40:15.554Z,17.50
2017-07-11T21:42:43.046Z,16.13
2017-07-11T21:45:10.550Z,16.20
2017-07-11T21:47:38.043Z,16.93
2017-07-11T21:50:05.541Z,19.40
2017-07-11T21:52:33.179Z,18.47
2017-07-11T21:55:00.673Z,19.57
2017-07-11T21:57:28.172Z,18.73
2017-07-11T21:59:55.705Z,17.17
2017-07-11T22:02:23.303Z,17.50
2017-07-11T22:04:50.849Z,17.43
2017-07-11T22:07:18.389Z,18.30
2017-07-11T22:09:45.933Z,20.37
2017-07-11T22:12:13.473Z,18.50
2017-07-11T22:14:40.969Z,16.90
2017-07-11T22:17:08.488Z,16.80
2017-07-11T22:19:35.997Z,15.37
2017-07-11T22:22:03.516Z,16.73
2017-07-11T22:24:31.807Z,18.03
2017-07-11T22:26:59.318Z,14.67
2017-07-11T22:29:26.874Z,18.40
2017-07-11T22:31:55.261Z,14.80
2017-07-11T22:34:22.752Z,14.00
2017-07-11T22:36:50.252Z,15.30
2017-07-11T22:39:17.787Z,14.63
2017-07-11T22:41:45.328Z,14.30
2017-07-11T22:44:12.884Z,16.07
2017-07-11T22:46:41.089Z,15.07
2017-07-11T22:49:08.585Z,13.80
2017-07-11T22:51:36.079Z,16.13
2017-07-11T22:54:04.358Z,13.53
2017-07-11T22:56:32.766Z,14.50
2017-07-11T22:59:00.288Z,13.60
2017-07-11T23:01:28.085Z,11.80
2017-07-11T23:03:55.674Z,12.30
2017-07-11T23:06:23.173Z,13.33
2017-07-11T23:08:50.756Z,11.23
2017-07-11T23:11:18.300Z,11.17
2017-07-11T23:13:45.845Z,10.60
2017-07-11T23:16:13.389Z,12.53
2017-07-11T23:18:41.069Z,10.53
2017-07-11T23:21:08.662Z,10.77
2017-07-11T23:23:36.940Z,14.00
2017-07-11T23:26:04.457Z,9.73
2017-07-11T23:28:32.741Z,9.70
2017-07-11T23:31:00.247Z,11.70
2017-07-11T23:33:28.543Z,10.23
2017-07-11T23:35:56.819Z,9.73
2017-07-11T23:38:24.359Z,9.87
2017-07-11T23:40:51.853Z,10.93
2017-07-11T23:43:19.358Z,11.87
2017-07-11T23:45:46.942Z,10.50
2017-07-11T23:48:14.525Z,11.37
2017-07-11T23:50:42.025Z,10.67
2017-07-11T23:53:09.558Z,11.63
2017-07-11T23:55:37.045Z,11.37
2017-07-11T23:58:04.533Z,11.70
